Time;durP1;ratioP1;P1;durP2;ratioP2;P2;SDS_P1;SDS_P2;PMS_P1;PMS_P2;Temp;Humidity;BMP_temperature;BMP_pressure;BME280_temperature;BME280_humidity;BME280_pressure;Samples;Min_cycle;Max_cycle;Signal;HPM_P1;HPM_P2
2022/06/03 00:02:49;;;;;;;4.43;2.30;;;23.20;57.70;;;;;;6210198;28;83726;-66
2022/06/03 00:05:50;;;;;;;4.10;2.25;;;23.20;57.60;;;;;;6232309;28;80786;-66
2022/06/03 00:08:50;;;;;;;2.03;1.77;;;23.20;57.40;;;;;;6232377;28;80921;-66
2022/06/03 00:11:51;;;;;;;4.50;2.08;;;23.10;57.40;;;;;;6226904;28;80851;-64
2022/06/03 00:14:51;;;;;;;1.98;1.67;;;23.10;57.30;;;;;;6232321;28;80604;-65
2022/06/03 00:17:51;;;;;;;2.90;2.00;;;23.10;57.10;;;;;;6224145;28;81166;-65
2022/06/03 00:20:54;;;;;;;3.30;2.30;;;23.10;57.10;;;;;;6227774;28;80904;-65
2022/06/03 00:23:54;;;;;;;2.83;1.88;;;23.10;57.30;;;;;;6228828;28;80454;-65
2022/06/03 00:26:54;;;;;;;2.72;1.83;;;23.10;57.30;;;;;;6233845;28;80355;-65
2022/06/03 00:29:55;;;;;;;2.33;1.80;;;23.10;56.60;;;;;;6215221;28;80706;-65
2022/06/03 00:32:55;;;;;;;2.38;2.03;;;23.10;56.70;;;;;;6236125;28;80544;-65
2022/06/03 00:35:56;;;;;;;2.97;2.10;;;23.10;57.10;;;;;;6235484;28;80488;-65
2022/06/03 00:38:57;;;;;;;1.77;1.50;;;23.10;57.00;;;;;;6234504;28;81626;-65
2022/06/03 00:41:57;;;;;;;3.42;2.00;;;23.10;56.70;;;;;;6215443;28;80613;-65
2022/06/03 00:44:58;;;;;;;3.42;2.10;;;23.10;56.80;;;;;;6214760;28;84210;-65
2022/06/03 00:47:58;;;;;;;3.10;2.20;;;23.10;56.60;;;;;;6226864;28;79956;-64
2022/06/03 00:50:59;;;;;;;8.55;2.08;;;23.10;56.90;;;;;;6231812;28;80843;-65
2022/06/03 00:53:59;;;;;;;2.10;1.70;;;23.10;56.60;;;;;;6235318;28;81865;-65
2022/06/03 00:57:00;;;;;;;4.05;2.10;;;23.10;56.50;;;;;;6233229;28;80532;-65
2022/06/03 01:00:00;;;;;;;3.42;1.67;;;23.10;56.50;;;;;;6234337;28;81252;-65
2022/06/03 01:03:01;;;;;;;3.97;1.98;;;23.10;56.40;;;;;;6234312;28;81887;-65
2022/06/03 01:06:01;;;;;;;2.33;1.60;;;23.10;56.50;;;;;;6235872;28;80394;-66
2022/06/03 01:09:02;;;;;;;3.65;1.90;;;23.10;56.30;;;;;;6232817;28;80493;-66
2022/06/03 01:12:02;;;;;;;7.22;2.10;;;23.10;56.40;;;;;;6194159;28;83915;-65
2022/06/03 01:15:03;;;;;;;2.85;2.20;;;23.10;56.10;;;;;;6234688;28;80057;-66
2022/06/03 01:18:03;;;;;;;2.88;1.52;;;23.00;56.10;;;;;;6230695;28;80949;-65
2022/06/03 01:21:04;;;;;;;5.35;1.88;;;23.00;56.10;;;;;;6235124;28;82870;-66
2022/06/03 01:24:05;;;;;;;2.83;1.73;;;23.00;56.00;;;;;;6235581;28;80602;-66
2022/06/03 01:27:05;;;;;;;3.28;1.83;;;23.00;56.10;;;;;;6234060;28;82267;-66
2022/06/03 01:30:06;;;;;;;3.05;2.00;;;23.00;56.00;;;;;;6231434;28;80113;-66
2022/06/03 01:33:07;;;;;;;2.10;1.70;;;23.00;55.90;;;;;;6232328;28;80395;-66
2022/06/03 01:36:08;;;;;;;3.20;1.67;;;23.00;55.90;;;;;;6212723;28;80161;-65
2022/06/03 01:39:08;;;;;;;2.03;1.80;;;23.00;56.00;;;;;;6211053;28;81745;-65
2022/06/03 01:42:09;;;;;;;2.30;1.83;;;23.00;55.90;;;;;;6231793;28;81251;-68
2022/06/03 01:45:09;;;;;;;2.80;2.20;;;23.00;55.90;;;;;;6234191;28;80344;-65
2022/06/03 01:48:10;;;;;;;1.63;1.48;;;23.00;55.60;;;;;;6230951;28;80623;-68
2022/06/03 01:51:11;;;;;;;3.13;2.00;;;23.00;56.10;;;;;;6233054;28;80132;-66
2022/06/03 01:54:11;;;;;;;2.50;1.95;;;23.00;56.20;;;;;;6231466;28;80666;-66
2022/06/03 01:57:12;;;;;;;2.42;1.55;;;23.00;56.00;;;;;;6228889;28;80918;-66
2022/06/03 02:00:12;;;;;;;3.65;1.80;;;23.10;56.00;;;;;;6216080;28;80419;-66
2022/06/03 02:03:13;;;;;;;2.63;1.77;;;23.00;55.70;;;;;;6230783;28;80588;-65
2022/06/03 02:06:13;;;;;;;3.25;2.10;;;23.00;55.40;;;;;;6233664;28;81375;-65
2022/06/03 02:09:14;;;;;;;3.42;2.10;;;23.00;55.60;;;;;;6231078;28;80426;-66
2022/06/03 02:12:15;;;;;;;2.35;1.70;;;23.00;55.90;;;;;;6226516;28;80891;-66
2022/06/03 02:15:15;;;;;;;5.35;2.33;;;23.00;55.70;;;;;;6233904;28;80339;-66
2022/06/03 02:18:16;;;;;;;2.05;1.73;;;23.00;55.30;;;;;;6233487;28;80287;-66
2022/06/03 02:21:16;;;;;;;3.50;1.95;;;22.90;55.40;;;;;;6233379;28;80348;-66
2022/06/03 02:24:17;;;;;;;2.63;1.90;;;23.00;55.50;;;;;;6232982;28;80440;-67
2022/06/03 02:27:18;;;;;;;3.03;2.00;;;23.00;55.40;;;;;;6234459;28;80909;-66
2022/06/03 02:30:24;;;;;;;5.43;2.13;;;23.00;55.40;;;;;;6228554;28;80682;-65
2022/06/03 02:33:25;;;;;;;2.97;1.92;;;23.00;55.30;;;;;;6224779;28;80716;-65
2022/06/03 02:36:25;;;;;;;3.72;1.85;;;23.00;55.30;;;;;;6222436;28;81759;-65
2022/06/03 02:39:26;;;;;;;3.92;1.80;;;23.00;55.50;;;;;;6218817;28;83745;-65
2022/06/03 02:42:26;;;;;;;1.92;1.60;;;23.00;55.30;;;;;;6230731;28;80379;-65
2022/06/03 02:45:27;;;;;;;3.42;2.00;;;23.00;55.50;;;;;;6228935;28;80773;-66
2022/06/03 02:48:29;;;;;;;2.50;1.83;;;23.00;55.40;;;;;;6215316;28;80392;-67
2022/06/03 02:51:30;;;;;;;3.08;2.13;;;22.90;55.30;;;;;;6212018;28;81474;-66
2022/06/03 02:54:30;;;;;;;3.30;2.10;;;22.90;55.80;;;;;;6229886;28;80530;-65
2022/06/03 02:57:31;;;;;;;3.42;2.05;;;22.90;55.60;;;;;;6229560;28;80492;-66
2022/06/03 03:00:31;;;;;;;2.80;1.95;;;22.90;55.20;;;;;;6207018;28;81256;-66
2022/06/03 03:03:32;;;;;;;3.30;2.00;;;22.90;55.10;;;;;;6230749;28;80851;-66
2022/06/03 03:06:33;;;;;;;3.35;2.22;;;22.90;56.50;;;;;;6215076;28;80564;-67
2022/06/03 03:09:34;;;;;;;4.07;1.85;;;22.90;56.20;;;;;;6231941;28;80589;-66
2022/06/03 03:12:34;;;;;;;2.17;1.98;;;22.90;55.50;;;;;;6228290;28;81019;-65
2022/06/03 03:15:35;;;;;;;2.10;1.73;;;22.90;55.10;;;;;;6225418;28;81424;-66
2022/06/03 03:18:35;;;;;;;2.38;1.75;;;22.90;54.90;;;;;;6228123;28;80553;-66
2022/06/03 03:21:36;;;;;;;3.60;2.30;;;22.90;54.80;;;;;;6228222;28;81048;-66
2022/06/03 03:24:36;;;;;;;4.15;2.20;;;22.90;55.10;;;;;;6227693;28;81428;-66
2022/06/03 03:27:37;;;;;;;3.00;2.42;;;22.90;55.00;;;;;;6231408;28;80209;-65
2022/06/03 03:30:37;;;;;;;2.90;1.98;;;22.90;55.80;;;;;;6229405;28;80312;-66
2022/06/03 03:33:38;;;;;;;4.97;2.20;;;22.90;54.70;;;;;;6229644;28;80097;-65
2022/06/03 03:36:38;;;;;;;3.95;2.10;;;22.90;54.70;;;;;;6227102;28;81311;-65
2022/06/03 03:39:38;;;;;;;2.35;2.08;;;22.90;55.00;;;;;;6225906;28;80603;-66
2022/06/03 03:42:39;;;;;;;3.10;2.33;;;22.90;54.60;;;;;;6227668;28;81401;-67
2022/06/03 03:45:39;;;;;;;3.75;2.20;;;22.90;55.50;;;;;;6225027;28;80417;-66
2022/06/03 03:48:40;;;;;;;3.47;2.42;;;22.90;55.20;;;;;;6197383;28;82525;-66
2022/06/03 03:51:40;;;;;;;4.32;2.30;;;22.90;54.80;;;;;;6230327;28;81590;-66
2022/06/03 03:54:41;;;;;;;4.10;2.65;;;22.90;55.30;;;;;;6229716;28;81670;-65
2022/06/03 03:57:42;;;;;;;4.90;2.97;;;22.90;55.90;;;;;;6211418;28;81702;-67
2022/06/03 04:00:42;;;;;;;7.10;2.88;;;23.00;55.90;;;;;;6233341;28;80639;-67
2022/06/03 04:03:42;;;;;;;4.38;2.75;;;23.00;56.00;;;;;;6230026;28;80763;-66
2022/06/03 04:06:43;;;;;;;3.35;2.42;;;23.00;55.40;;;;;;6226929;28;80219;-65
2022/06/03 04:09:43;;;;;;;4.53;2.20;;;22.90;55.90;;;;;;6230988;28;80526;-67
2022/06/03 04:12:44;;;;;;;4.05;2.42;;;23.00;56.30;;;;;;6236392;28;86436;-66
2022/06/03 04:15:44;;;;;;;6.90;2.92;;;23.00;56.20;;;;;;6227953;28;81042;-64
2022/06/03 04:18:45;;;;;;;21.40;3.35;;;23.00;56.00;;;;;;6234523;28;80951;-63
2022/06/03 04:21:45;;;;;;;3.55;2.28;;;22.90;56.60;;;;;;6233021;28;80158;-64
2022/06/03 04:24:46;;;;;;;5.68;3.17;;;23.00;56.60;;;;;;6232241;28;80857;-65
2022/06/03 04:27:46;;;;;;;4.72;2.40;;;23.00;57.30;;;;;;6232544;28;81048;-65
2022/06/03 04:30:47;;;;;;;5.07;2.20;;;23.00;57.00;;;;;;6223885;28;81580;-65
2022/06/03 04:33:47;;;;;;;4.50;2.28;;;23.00;56.90;;;;;;6229579;28;80616;-69
2022/06/03 04:36:48;;;;;;;8.85;2.80;;;23.00;56.70;;;;;;6231416;28;80387;-66
2022/06/03 04:39:48;;;;;;;5.80;2.92;;;23.00;56.70;;;;;;6214200;28;81590;-62
2022/06/03 04:42:49;;;;;;;4.70;2.30;;;23.00;56.90;;;;;;6233180;28;82025;-63
2022/06/03 04:45:49;;;;;;;13.93;3.53;;;23.10;57.30;;;;;;6234370;28;85694;-66
2022/06/03 04:48:50;;;;;;;7.47;2.30;;;23.10;56.40;;;;;;6235132;28;80431;-65
2022/06/03 04:51:50;;;;;;;6.25;2.60;;;23.10;56.50;;;;;;6232136;28;80470;-65
2022/06/03 04:54:50;;;;;;;5.22;2.83;;;23.10;56.50;;;;;;6233223;28;80258;-67
2022/06/03 04:57:51;;;;;;;7.13;3.20;;;23.00;56.00;;;;;;6230304;28;80399;-63
2022/06/03 05:00:51;;;;;;;4.93;2.78;;;23.00;56.00;;;;;;6221970;28;81405;-64
2022/06/03 05:03:52;;;;;;;8.68;2.60;;;23.00;55.50;;;;;;6222034;28;80546;-64
2022/06/03 05:06:52;;;;;;;7.13;2.83;;;23.00;55.20;;;;;;6226503;28;80916;-64
2022/06/03 05:09:53;;;;;;;6.50;3.05;;;23.00;54.90;;;;;;6212233;28;80580;-65
2022/06/03 05:12:53;;;;;;;5.18;2.13;;;23.00;54.40;;;;;;6223754;28;80535;-64
2022/06/03 05:15:54;;;;;;;10.13;3.63;;;22.90;54.30;;;;;;6213144;28;81791;-64
2022/06/03 05:18:55;;;;;;;10.43;4.22;;;23.00;54.40;;;;;;6229477;28;80560;-64
2022/06/03 05:21:56;;;;;;;4.80;2.80;;;22.90;52.70;;;;;;6223996;28;80664;-64
2022/06/03 05:24:56;;;;;;;7.85;2.92;;;22.90;53.00;;;;;;6231106;28;81673;-65
2022/06/03 05:27:58;;;;;;;10.05;3.20;;;22.90;52.10;;;;;;6233859;28;80218;-65
2022/06/03 05:30:59;;;;;;;9.90;3.25;;;22.90;52.00;;;;;;6230423;28;85351;-66
2022/06/03 05:34:00;;;;;;;9.68;3.35;;;22.80;51.40;;;;;;6229466;28;80448;-65
2022/06/03 05:37:01;;;;;;;4.10;2.83;;;22.80;51.30;;;;;;6230217;28;80601;-65
2022/06/03 05:40:01;;;;;;;12.63;3.30;;;22.80;51.20;;;;;;6229702;28;81563;-64
2022/06/03 05:43:02;;;;;;;6.50;3.65;;;22.80;51.20;;;;;;6219685;28;81488;-64
2022/06/03 05:46:03;;;;;;;5.85;3.03;;;22.70;51.40;;;;;;6229526;28;80981;-66
2022/06/03 05:49:04;;;;;;;3.95;2.35;;;22.70;51.20;;;;;;6228187;28;83661;-64
2022/06/03 05:52:04;;;;;;;8.32;3.28;;;22.70;51.30;;;;;;6227484;28;85432;-65
2022/06/03 05:55:05;;;;;;;11.02;3.28;;;22.70;51.40;;;;;;6227573;28;80385;-69
2022/06/03 05:58:06;;;;;;;4.32;2.90;;;22.70;51.60;;;;;;6224449;28;80770;-65
2022/06/03 06:01:06;;;;;;;19.52;8.70;;;22.70;52.00;;;;;;6210661;28;80249;-65
2022/06/03 06:04:10;;;;;;;11.05;5.00;;;22.60;51.70;;;;;;6228857;28;83490;-66
2022/06/03 06:07:10;;;;;;;11.73;5.53;;;22.60;52.20;;;;;;6233925;28;80587;-66
2022/06/03 06:10:10;;;;;;;10.73;3.92;;;22.60;52.00;;;;;;6233468;28;80332;-65
2022/06/03 06:13:11;;;;;;;9.52;4.20;;;22.60;52.10;;;;;;6233228;28;80705;-64
2022/06/03 06:16:12;;;;;;;8.93;3.55;;;22.60;52.20;;;;;;6229591;28;80472;-65
2022/06/03 06:19:12;;;;;;;11.55;3.53;;;22.60;52.40;;;;;;6232201;28;81667;-65
2022/06/03 06:22:13;;;;;;;10.48;3.70;;;22.60;52.80;;;;;;6210400;28;80878;-66
2022/06/03 06:25:14;;;;;;;7.15;3.03;;;22.50;52.80;;;;;;6229887;28;84798;-67
2022/06/03 06:28:15;;;;;;;7.38;3.70;;;22.60;52.80;;;;;;6224593;28;80433;-67
2022/06/03 06:31:16;;;;;;;6.95;3.00;;;22.50;52.80;;;;;;6209345;28;82110;-65
2022/06/03 06:34:16;;;;;;;5.82;2.72;;;22.50;52.80;;;;;;6224761;28;80623;-66
2022/06/03 06:37:17;;;;;;;7.18;3.50;;;22.50;53.00;;;;;;6227841;28;81516;-67
2022/06/03 06:40:18;;;;;;;8.63;3.22;;;22.50;52.90;;;;;;6224921;28;81491;-68
2022/06/03 06:43:18;;;;;;;7.07;3.13;;;22.50;52.90;;;;;;6227553;28;81017;-68
2022/06/03 06:46:19;;;;;;;4.93;2.85;;;22.50;53.60;;;;;;6228552;28;81455;-68
2022/06/03 06:49:19;;;;;;;9.48;3.58;;;22.50;53.50;;;;;;6225242;28;81606;-68
2022/06/03 06:52:20;;;;;;;5.97;3.55;;;22.50;53.20;;;;;;6233837;28;81127;-69
2022/06/03 06:55:21;;;;;;;8.25;3.50;;;22.50;53.40;;;;;;6230721;28;81631;-69
2022/06/03 06:58:21;;;;;;;7.63;3.47;;;22.60;53.40;;;;;;6233941;28;81456;-70
2022/06/03 07:01:22;;;;;;;7.50;3.40;;;22.60;53.60;;;;;;6228634;28;81549;-69
2022/06/03 07:04:22;;;;;;;8.70;3.58;;;22.60;53.80;;;;;;6231749;28;81586;-69
2022/06/03 07:07:23;;;;;;;10.52;3.90;;;22.60;53.80;;;;;;6228611;28;81816;-70
2022/06/03 07:10:24;;;;;;;9.43;3.63;;;22.70;53.50;;;;;;6227058;28;82124;-70
2022/06/03 07:13:24;;;;;;;11.73;3.75;;;22.60;53.90;;;;;;6211673;28;80509;-69
2022/06/03 07:19:50;;;;;;;9.00;3.92;;;22.60;53.50;;;;;;6221943;28;85464;-71
2022/06/03 07:22:51;;;;;;;8.10;3.60;;;22.60;53.30;;;;;;6221015;28;80907;-69
2022/06/03 07:25:56;;;;;;;14.43;3.63;;;22.50;53.60;;;;;;6228481;28;81556;-70
2022/06/03 07:28:56;;;;;;;8.70;3.53;;;22.60;54.00;;;;;;6207502;28;82167;-70
2022/06/03 07:31:57;;;;;;;7.13;2.97;;;22.60;52.90;;;;;;6223620;28;80781;-62
2022/06/03 07:34:58;;;;;;;7.78;2.70;;;22.60;53.80;;;;;;6226514;28;80235;-63
2022/06/03 07:38:00;;;;;;;4.25;2.85;;;22.60;53.50;;;;;;6227809;28;80552;-64
2022/06/03 07:41:00;;;;;;;4.63;2.60;;;22.50;53.50;;;;;;6220637;28;81501;-63
2022/06/03 07:44:01;;;;;;;8.20;3.50;;;22.60;52.90;;;;;;6222070;28;80340;-62
2022/06/03 07:47:01;;;;;;;3.20;2.55;;;22.40;52.60;;;;;;6229667;28;80393;-63
2022/06/03 07:50:02;;;;;;;10.00;2.80;;;22.30;52.20;;;;;;6226192;28;80487;-63
2022/06/03 07:53:02;;;;;;;5.50;2.80;;;22.40;52.70;;;;;;6219705;28;80574;-63
2022/06/03 07:56:03;;;;;;;3.85;2.70;;;22.50;52.20;;;;;;6200001;28;80313;-63
2022/06/03 07:59:03;;;;;;;4.03;2.22;;;22.50;52.50;;;;;;6218069;28;80510;-63
2022/06/03 08:02:04;;;;;;;4.55;2.30;;;22.40;51.70;;;;;;6217291;28;80582;-63
2022/06/03 08:05:04;;;;;;;4.70;2.30;;;22.40;52.50;;;;;;6198309;28;80622;-63
2022/06/03 08:11:24;;;;;;;5.07;2.60;;;22.50;52.80;;;;;;6218695;28;80273;-63
2022/06/03 08:14:25;;;;;;;2.63;2.38;;;22.60;52.40;;;;;;6225113;28;81348;-63
2022/06/03 08:17:25;;;;;;;3.67;2.42;;;22.60;52.00;;;;;;6224424;28;80419;-64
2022/06/03 08:20:26;;;;;;;5.80;2.50;;;22.60;51.80;;;;;;6226858;28;80462;-63
2022/06/03 08:23:30;;;;;;;4.47;2.58;;;22.60;51.80;;;;;;6229672;28;80880;-63
2022/06/03 08:26:31;;;;;;;5.45;2.45;;;22.70;52.00;;;;;;6218624;28;80343;-64
2022/06/03 08:29:31;;;;;;;3.78;2.42;;;22.70;52.00;;;;;;6221394;28;81896;-64
2022/06/03 08:32:32;;;;;;;3.80;2.60;;;22.80;51.50;;;;;;6220904;28;80595;-63
2022/06/03 08:35:32;;;;;;;2.40;2.20;;;22.80;51.10;;;;;;6209426;28;80835;-67
2022/06/03 08:38:33;;;;;;;10.68;3.65;;;22.80;51.10;;;;;;6229631;28;80323;-68
2022/06/03 08:41:33;;;;;;;2.80;2.20;;;22.80;51.20;;;;;;6228706;28;81531;-66
2022/06/03 08:44:34;;;;;;;3.90;2.42;;;22.90;51.40;;;;;;6224981;28;80370;-65
2022/06/03 08:47:34;;;;;;;6.45;3.25;;;22.80;49.60;;;;;;6229244;28;80404;-66
2022/06/03 08:50:35;;;;;;;3.10;1.90;;;22.80;49.90;;;;;;6233962;28;80731;-69
2022/06/03 08:53:35;;;;;;;5.80;2.05;;;22.90;50.70;;;;;;6229173;28;82565;-67
2022/06/03 08:56:36;;;;;;;3.95;2.47;;;22.90;48.70;;;;;;6222881;28;80529;-67
2022/06/03 08:59:36;;;;;;;6.47;3.20;;;22.80;47.40;;;;;;6232165;28;81298;-67
2022/06/03 09:02:37;;;;;;;7.28;2.35;;;22.90;47.60;;;;;;6230258;28;81212;-68
2022/06/03 09:05:37;;;;;;;2.67;2.00;;;23.00;48.30;;;;;;6230357;28;81389;-67
2022/06/03 09:08:38;;;;;;;4.43;2.13;;;23.00;48.20;;;;;;6229825;28;80677;-66
2022/06/03 09:11:39;;;;;;;2.97;2.00;;;23.00;47.60;;;;;;6230975;28;82155;-66
2022/06/03 09:14:39;;;;;;;5.57;2.08;;;23.00;46.30;;;;;;6214451;28;80791;-67
2022/06/03 09:17:40;;;;;;;6.28;2.20;;;23.00;46.80;;;;;;6228818;28;80734;-66
2022/06/03 09:20:42;;;;;;;13.18;2.50;;;23.00;45.70;;;;;;6209611;28;83405;-66
2022/06/03 09:23:43;;;;;;;10.35;2.25;;;23.00;45.40;;;;;;6228401;28;80736;-65
2022/06/03 09:26:43;;;;;;;4.13;2.28;;;23.10;46.60;;;;;;6224629;28;82741;-65
2022/06/03 09:29:45;;;;;;;5.93;1.98;;;23.10;45.40;;;;;;6230181;28;80571;-66
2022/06/03 09:32:49;;;;;;;3.50;1.88;;;23.20;45.60;;;;;;6232375;28;80615;-66
2022/06/03 09:35:49;;;;;;;18.95;3.13;;;23.10;45.80;;;;;;6234487;28;81548;-66
2022/06/03 09:38:50;;;;;;;2.92;2.10;;;23.10;44.50;;;;;;6232581;28;80885;-65
2022/06/03 09:41:53;;;;;;;3.83;1.98;;;23.20;44.50;;;;;;6216903;28;80842;-66
2022/06/03 09:44:53;;;;;;;4.25;1.67;;;23.20;43.30;;;;;;6233816;28;81450;-66
2022/06/03 09:47:54;;;;;;;13.35;2.22;;;23.20;44.20;;;;;;6226440;28;80784;-66
2022/06/03 09:50:55;;;;;;;3.20;1.70;;;23.30;44.20;;;;;;6229359;28;80877;-66
2022/06/03 09:53:55;;;;;;;2.60;2.20;;;23.40;44.80;;;;;;6215213;28;81252;-66
2022/06/03 09:56:56;;;;;;;2.13;1.70;;;23.40;44.50;;;;;;6232134;28;80613;-66
2022/06/03 09:59:57;;;;;;;1.88;1.70;;;23.30;44.80;;;;;;6234099;28;80329;-67
2022/06/03 10:02:58;;;;;;;3.55;1.92;;;23.20;44.50;;;;;;6231953;28;80732;-68
2022/06/03 10:05:58;;;;;;;4.55;2.05;;;23.20;45.40;;;;;;6227212;28;81371;-66
2022/06/03 10:15:38;;;;;;;5.75;1.83;;;23.30;45.80;;;;;;6227609;28;80738;-66
2022/06/03 10:18:38;;;;;;;5.32;2.00;;;23.40;46.00;;;;;;6231501;28;81031;-67
2022/06/03 10:21:39;;;;;;;4.28;2.58;;;23.40;46.40;;;;;;6227145;28;80918;-67
2022/06/03 10:24:40;;;;;;;4.85;2.20;;;23.40;46.00;;;;;;6234096;28;80142;-66
2022/06/03 10:27:40;;;;;;;4.35;2.83;;;23.30;46.50;;;;;;6227084;28;82958;-67
2022/06/03 10:30:41;;;;;;;2.28;2.08;;;23.40;46.30;;;;;;6225482;28;81039;-67
2022/06/03 10:33:42;;;;;;;2.95;2.47;;;23.40;46.30;;;;;;6226930;28;80552;-67
2022/06/03 10:36:42;;;;;;;4.57;2.08;;;23.50;46.20;;;;;;6233385;28;81281;-67
2022/06/03 10:39:43;;;;;;;6.45;1.88;;;23.40;45.70;;;;;;6215521;28;81975;-67
2022/06/03 10:42:43;;;;;;;4.18;2.40;;;23.40;46.30;;;;;;6230065;28;81569;-67
2022/06/03 10:45:44;;;;;;;4.00;2.15;;;23.50;45.70;;;;;;6220327;28;83093;-67
2022/06/03 10:48:44;;;;;;;8.25;2.25;;;23.50;46.10;;;;;;6227255;28;81466;-67
2022/06/03 11:01:43;;;;;;;2.67;2.13;;;23.50;46.30;;;;;;6225831;28;81433;-67
2022/06/03 11:04:44;;;;;;;4.88;2.00;;;23.60;45.30;;;;;;6232382;28;80341;-66
2022/06/03 11:07:46;;;;;;;2.17;1.98;;;23.70;46.30;;;;;;6225806;28;80501;-66
2022/06/03 11:10:47;;;;;;;2.47;1.95;;;23.70;45.70;;;;;;6204987;28;83186;-65
2022/06/03 11:13:48;;;;;;;3.40;2.10;;;23.80;45.70;;;;;;6228175;28;80764;-65
2022/06/03 11:16:48;;;;;;;3.20;2.40;;;23.80;45.30;;;;;;6232468;28;80165;-66
2022/06/03 11:19:49;;;;;;;6.88;2.30;;;23.90;45.90;;;;;;6198781;28;83089;-64
2022/06/03 11:22:49;;;;;;;1.73;1.58;;;23.90;45.00;;;;;;6224528;28;81111;-65
2022/06/03 11:25:50;;;;;;;6.40;2.35;;;24.10;44.90;;;;;;6217989;28;81129;-65
2022/06/03 11:28:51;;;;;;;2.28;1.92;;;24.10;45.40;;;;;;6224881;28;80405;-65
2022/06/03 11:31:52;;;;;;;2.95;1.98;;;23.90;45.60;;;;;;6228349;28;80796;-65
2022/06/03 11:34:52;;;;;;;5.13;2.08;;;23.90;44.90;;;;;;6226572;28;81717;-65
2022/06/03 11:37:53;;;;;;;5.25;2.28;;;23.90;45.10;;;;;;6224467;28;80610;-66
2022/06/03 11:40:54;;;;;;;2.72;2.20;;;24.00;45.90;;;;;;6231889;28;80503;-65
2022/06/03 11:43:54;;;;;;;3.22;2.47;;;23.90;45.10;;;;;;6219773;28;81203;-67
2022/06/03 11:46:55;;;;;;;3.10;2.15;;;23.90;44.80;;;;;;6226769;28;80287;-64
2022/06/03 11:49:55;;;;;;;2.55;1.98;;;24.00;44.50;;;;;;6225418;28;81144;-65
2022/06/03 11:52:56;;;;;;;3.00;2.22;;;24.00;45.00;;;;;;6221645;28;81384;-66
2022/06/03 11:55:57;;;;;;;2.42;1.98;;;24.00;45.70;;;;;;6226292;28;80392;-65
2022/06/03 11:58:57;;;;;;;3.22;2.05;;;24.00;45.40;;;;;;6231152;28;81741;-66
2022/06/03 12:01:58;;;;;;;4.53;2.50;;;24.00;46.10;;;;;;6224859;28;80865;-66
2022/06/03 12:04:58;;;;;;;5.45;2.47;;;23.90;45.20;;;;;;6223940;28;81108;-64
2022/06/03 12:07:59;;;;;;;5.55;2.70;;;24.00;45.70;;;;;;6228451;28;80445;-66
2022/06/03 12:10:59;;;;;;;2.58;2.38;;;24.00;46.10;;;;;;6226229;28;82420;-66
2022/06/03 12:14:00;;;;;;;3.47;2.30;;;24.10;46.40;;;;;;6228554;28;81164;-65
2022/06/03 12:17:00;;;;;;;3.33;1.88;;;24.10;46.90;;;;;;6230458;28;80746;-66
2022/06/03 12:20:01;;;;;;;4.43;2.53;;;24.00;46.00;;;;;;6224032;28;80463;-66
2022/06/03 12:23:01;;;;;;;4.72;2.38;;;24.00;46.60;;;;;;6230203;28;81852;-66
2022/06/03 12:26:02;;;;;;;9.48;2.50;;;24.00;46.40;;;;;;6223482;28;80620;-67
2022/06/03 12:29:03;;;;;;;5.38;2.00;;;24.10;44.80;;;;;;6216573;28;81930;-66
2022/06/03 12:32:03;;;;;;;10.85;2.72;;;24.30;44.50;;;;;;6234431;28;80807;-65
2022/06/03 12:35:04;;;;;;;2.97;1.88;;;24.30;44.60;;;;;;6235224;28;80724;-67
2022/06/03 12:38:04;;;;;;;5.35;2.20;;;24.30;45.30;;;;;;6235647;28;80419;-66
2022/06/03 12:41:05;;;;;;;2.65;1.92;;;24.30;45.10;;;;;;6230647;28;80477;-65
2022/06/03 12:44:06;;;;;;;4.20;2.15;;;24.30;44.90;;;;;;6211182;28;84730;-67
2022/06/03 12:47:07;;;;;;;2.38;2.15;;;24.30;45.30;;;;;;6204765;28;80271;-67
2022/06/03 12:50:08;;;;;;;3.00;2.17;;;24.30;45.40;;;;;;6202217;28;80558;-66
2022/06/03 12:53:08;;;;;;;3.00;2.20;;;24.20;45.70;;;;;;6221756;28;81717;-66
2022/06/03 12:56:09;;;;;;;2.40;1.98;;;24.20;46.20;;;;;;6227509;28;80361;-66
2022/06/03 12:59:09;;;;;;;3.83;2.10;;;24.20;44.20;;;;;;6224986;28;81126;-68
2022/06/03 13:02:10;;;;;;;7.35;2.47;;;24.30;45.20;;;;;;6220085;28;80494;-67
2022/06/03 13:05:11;;;;;;;4.97;2.10;;;24.20;44.00;;;;;;6233121;28;81462;-66
2022/06/03 13:08:11;;;;;;;8.90;2.92;;;24.30;44.50;;;;;;6205448;28;80411;-68
2022/06/03 13:11:12;;;;;;;2.47;2.00;;;24.30;45.50;;;;;;6205532;28;82035;-67
2022/06/03 13:14:12;;;;;;;24.67;3.50;;;24.30;45.60;;;;;;6228989;28;80929;-68
2022/06/03 13:17:12;;;;;;;3.72;2.22;;;24.30;45.50;;;;;;6223867;28;81900;-68
2022/06/03 13:20:13;;;;;;;3.53;1.77;;;24.20;45.80;;;;;;6230190;28;80602;-66
2022/06/03 13:23:13;;;;;;;3.00;2.30;;;24.20;45.50;;;;;;6230171;28;80745;-67
2022/06/03 13:26:14;;;;;;;2.78;2.30;;;24.10;45.80;;;;;;6222742;28;80629;-68
2022/06/03 13:29:15;;;;;;;2.58;2.10;;;24.20;46.20;;;;;;6210123;28;80480;-69
2022/06/03 13:32:15;;;;;;;5.13;2.30;;;24.20;46.20;;;;;;6220880;28;82363;-65
2022/06/03 13:35:16;;;;;;;3.58;2.50;;;24.10;46.40;;;;;;6205291;28;81315;-66
2022/06/03 13:38:17;;;;;;;8.50;2.25;;;24.10;46.60;;;;;;6224215;28;80853;-64
2022/06/03 13:44:37;;;;;;;3.92;2.15;;;24.10;46.30;;;;;;6234972;28;80904;-65
2022/06/03 13:47:37;;;;;;;3.90;2.30;;;24.10;46.60;;;;;;6232721;28;80391;-68
2022/06/03 13:50:39;;;;;;;6.10;2.17;;;24.10;46.70;;;;;;6226125;28;81032;-67
2022/06/03 13:53:39;;;;;;;4.85;2.17;;;24.10;46.20;;;;;;6211604;28;80674;-66
2022/06/03 13:56:40;;;;;;;3.40;2.47;;;24.20;44.50;;;;;;6220945;28;80530;-67
2022/06/03 13:59:40;;;;;;;3.55;2.10;;;24.30;44.50;;;;;;6231151;28;80777;-67
2022/06/03 14:02:41;;;;;;;2.38;2.10;;;24.40;44.70;;;;;;6223976;28;81977;-67
2022/06/03 14:05:41;;;;;;;6.30;2.47;;;24.30;45.10;;;;;;6234637;28;80243;-67
2022/06/03 14:08:41;;;;;;;3.50;2.10;;;24.30;44.80;;;;;;6232734;28;80294;-66
2022/06/03 14:11:42;;;;;;;2.90;2.28;;;24.20;45.10;;;;;;6219161;28;80413;-67
2022/06/03 14:14:42;;;;;;;6.35;2.28;;;24.20;46.10;;;;;;6228165;28;80381;-67
2022/06/03 14:17:43;;;;;;;3.17;2.05;;;24.20;46.00;;;;;;6207219;28;81522;-67
2022/06/03 14:20:44;;;;;;;2.08;1.77;;;24.10;44.90;;;;;;6222969;28;80491;-67
2022/06/03 14:23:45;;;;;;;4.53;2.10;;;24.10;45.10;;;;;;6228782;28;81236;-67
2022/06/03 14:26:45;;;;;;;3.30;2.35;;;24.10;44.70;;;;;;6193423;28;80806;-67
2022/06/03 14:29:46;;;;;;;3.15;1.92;;;24.10;46.20;;;;;;6198014;28;80887;-67
2022/06/03 14:32:46;;;;;;;2.92;2.13;;;24.10;44.90;;;;;;6195693;28;80682;-68
2022/06/03 14:35:47;;;;;;;3.58;2.30;;;24.10;45.00;;;;;;6208976;28;80430;-69
2022/06/03 14:38:47;;;;;;;4.70;2.17;;;24.10;44.50;;;;;;6218677;28;81437;-68
2022/06/03 14:41:48;;;;;;;5.13;2.28;;;24.20;45.80;;;;;;6198144;28;81406;-68
2022/06/03 14:44:48;;;;;;;7.10;2.58;;;24.20;44.90;;;;;;6207848;28;81084;-68
2022/06/03 14:47:49;;;;;;;4.43;2.25;;;24.30;44.50;;;;;;6211699;28;80105;-69
2022/06/03 14:50:50;;;;;;;3.30;2.60;;;24.30;44.70;;;;;;6213884;28;80898;-70
2022/06/03 14:53:51;;;;;;;2.83;2.38;;;24.30;44.20;;;;;;6203416;28;80348;-67
2022/06/03 14:56:51;;;;;;;4.65;2.30;;;24.30;44.80;;;;;;6197558;28;80638;-67
2022/06/03 14:59:52;;;;;;;6.63;2.47;;;24.30;45.60;;;;;;6211232;28;81317;-69
2022/06/03 15:02:52;;;;;;;5.53;2.20;;;24.30;44.80;;;;;;6205578;28;80343;-69
2022/06/03 15:05:53;;;;;;;4.75;2.22;;;24.30;44.50;;;;;;6209527;28;80486;-68
2022/06/03 15:08:53;;;;;;;4.65;2.50;;;24.30;45.00;;;;;;6206355;28;80911;-68
2022/06/03 15:11:54;;;;;;;8.73;2.30;;;24.30;44.90;;;;;;6209628;28;80455;-68
2022/06/03 15:14:54;;;;;;;2.80;2.05;;;24.30;44.50;;;;;;6207896;28;80475;-67
2022/06/03 15:17:55;;;;;;;3.88;2.05;;;24.30;44.50;;;;;;6202066;28;80568;-67
2022/06/03 15:20:55;;;;;;;2.58;1.73;;;24.30;45.60;;;;;;6195023;28;80518;-67
2022/06/03 15:23:56;;;;;;;4.63;2.10;;;24.20;45.60;;;;;;6209072;28;80098;-67
2022/06/03 15:26:56;;;;;;;4.63;2.42;;;24.20;45.20;;;;;;6219657;28;80262;-66
2022/06/03 15:29:57;;;;;;;3.15;2.22;;;24.20;44.20;;;;;;6229926;28;80401;-67
2022/06/03 15:32:57;;;;;;;3.03;2.10;;;24.20;43.60;;;;;;6230103;28;81146;-66
2022/06/03 15:35:58;;;;;;;2.53;2.15;;;24.20;44.30;;;;;;6228243;28;80476;-66
2022/06/03 15:38:59;;;;;;;2.30;2.00;;;24.10;43.90;;;;;;6222980;28;82827;-66
2022/06/03 15:42:00;;;;;;;5.85;2.17;;;24.10;43.50;;;;;;6222828;28;80647;-67
2022/06/03 15:45:04;;;;;;;2.22;1.50;;;24.10;43.80;;;;;;6226441;28;80733;-67
2022/06/03 15:48:04;;;;;;;3.55;2.05;;;24.10;43.40;;;;;;6225206;28;80813;-66
2022/06/03 15:51:05;;;;;;;3.67;1.85;;;24.10;44.40;;;;;;6229205;28;80905;-66
2022/06/03 15:54:05;;;;;;;2.88;1.80;;;24.10;44.20;;;;;;6231402;28;80587;-67
2022/06/03 15:57:07;;;;;;;2.28;2.08;;;24.10;43.40;;;;;;6229834;28;80572;-66
2022/06/03 16:00:07;;;;;;;2.35;1.80;;;24.10;43.10;;;;;;6209118;28;83435;-66
2022/06/03 16:03:08;;;;;;;3.72;2.25;;;24.20;44.20;;;;;;6225959;28;80320;-67
2022/06/03 16:06:08;;;;;;;1.98;1.70;;;24.20;44.30;;;;;;6208520;28;82919;-66